Wilberforce, OH (45384)

8:31 PM EST on December 17, 2014 (GMT -0500)
Xenia Township | Change Station
CLOSE
Current Station
Personal Weather Station
Location: Xenia, OH
Elevation: 1033 ft
Nearby Weather Stations

Elev 1033 ft 39.71 °N, 83.85 °W | Updated 3 minutes ago

Overcast
Overcast
25.3 °F
Feels Like 25 °F
N
1.0
Wind Variable Wind from South
Gusts 5.0 mph

Today
High -- | Low -- °F
--% Chance of Precip.
Yesterday
High -- | Low -- °F
Precip. -- in
7:50 AM 5:12 PM
Waning Crescent, 18% visible
Pressure 30.27 in
Visibility 7.0 miles
Clouds Overcast 1300 ft
Windchill 25 °F
Dew Point 22 °F
Humidity 86%
Rainfall 0.00 in
Snow Depth Not available.
UV 0 out of 12
Pollen .10 out of 12
Air Quality Not available.
Flu Activity Not available.
METAR KSGH 180056Z AUTO 27012G19KT 7SM OVC013 M04/M06 A3024 RMK AO2 T10381055 SLP251

More Conditions Fewer Conditions

Pressure 30.27 in
Visibility 7.0 miles
Clouds Overcast 1300 ft
Windchill 25 °F
Dew Point 22 °F
Humidity 86%
Rainfall 0.00 in
Snow Depth Not available.
UV 0 out of 12
Pollen .10 out of 12
Air Quality Not available.
Flu Activity Not available.
METAR KSGH 180056Z AUTO 27012G19KT 7SM OVC013 M04/M06 A3024 RMK AO2 T10381055 SLP251

More Conditions Fewer Conditions

10-Day Weather Forecast

Almanac

Astronomy

Dec. 17, 2014 Rise Set
Actual Time
Civil Twilight
Nautical Twilight
Astronomical Twilight
Moon
Length of Visible Light
Length of Day
Tomorrow will be .
, % of the Moon is Illuminated

Today's Extremes

State Highs State Lows

Community

WunderPhotos

Upload Photos

1,778,846 photos uploaded!

WunderBlogs® & News

Nearby

Air Quality

  Air Quality AQ Index Pollutant
Not available.

Snow Depth

Station Depth Elevation

Earthquake Activity

City Distance Mag. Time & Date
Minimum magnitude displayed is 2.5.

Coastal Water Temperatures

Place Temperature

Nearby Weather Stations